createdAt,value
2018-08-11T00:00:28.303Z,2.03
2018-08-11T00:02:57.193Z,1.90
2018-08-11T00:05:27.491Z,2.20
2018-08-11T00:07:56.467Z,2.10
2018-08-11T00:10:25.286Z,1.60
2018-08-11T00:12:54.074Z,1.97
2018-08-11T00:15:23.021Z,1.80
2018-08-11T00:17:51.873Z,2.30
2018-08-11T00:20:24.118Z,2.03
2018-08-11T00:22:53.270Z,2.27
2018-08-11T00:25:22.081Z,1.90
2018-08-11T00:27:50.905Z,2.90
2018-08-11T00:30:21.094Z,2.57
2018-08-11T00:32:49.831Z,2.60
2018-08-11T00:35:18.674Z,2.57
2018-08-11T00:37:47.533Z,2.60
2018-08-11T00:40:18.508Z,2.60
2018-08-11T00:42:48.602Z,2.70
2018-08-11T00:45:18.014Z,2.90
2018-08-11T00:47:46.920Z,3.43
2018-08-11T00:50:19.746Z,3.37
2018-08-11T00:52:48.634Z,4.13
2018-08-11T00:55:17.341Z,3.33
2018-08-11T00:57:46.250Z,3.50
2018-08-11T01:00:17.393Z,3.80
2018-08-11T01:02:46.419Z,3.60
2018-08-11T01:05:18.445Z,3.83
2018-08-11T01:07:48.189Z,3.33
2018-08-11T01:10:17.664Z,3.40
2018-08-11T01:12:47.294Z,3.47
2018-08-11T01:15:18.255Z,4.30
2018-08-11T01:17:48.458Z,3.63
2018-08-11T01:20:17.537Z,3.80
2018-08-11T01:22:47.248Z,3.87
2018-08-11T01:25:16.462Z,3.90
2018-08-11T01:27:45.177Z,4.03
2018-08-11T01:30:22.952Z,3.97
2018-08-11T01:32:51.830Z,4.07
2018-08-11T01:35:20.610Z,3.40
2018-08-11T01:37:49.326Z,4.00
2018-08-11T01:40:18.605Z,4.20
2018-08-11T01:42:48.899Z,3.40
2018-08-11T01:45:18.765Z,4.10
2018-08-11T01:47:47.553Z,4.37
2018-08-11T01:50:16.949Z,4.10
2018-08-11T01:52:46.769Z,4.50
2018-08-11T01:55:17.935Z,3.70
2018-08-11T01:57:48.341Z,4.10
2018-08-11T02:00:24.169Z,4.13
2018-08-11T02:02:52.847Z,4.43
2018-08-11T02:05:21.648Z,4.03
2018-08-11T02:07:50.399Z,5.30
2018-08-11T02:10:20.801Z,4.40
2018-08-11T02:12:50.086Z,5.30
2018-08-11T02:15:18.791Z,4.90
2018-08-11T02:17:47.871Z,5.43
2018-08-11T02:20:17.859Z,5.40
2018-08-11T02:22:48.237Z,5.13
2018-08-11T02:25:17.153Z,6.03
2018-08-11T02:27:46.150Z,5.17
2018-08-11T02:30:16.632Z,4.93
2018-08-11T02:32:45.642Z,5.93
2018-08-11T02:35:15.023Z,5.83
2018-08-11T02:37:44.721Z,6.00
2018-08-11T02:40:14.953Z,6.10
2018-08-11T02:42:43.870Z,5.50
2018-08-11T02:45:15.726Z,5.53
2018-08-11T02:47:44.909Z,6.47
2018-08-11T02:50:14.006Z,6.73
2018-08-11T02:52:43.561Z,6.67
2018-08-11T02:55:12.588Z,6.50
2018-08-11T02:57:41.336Z,6.70
2018-08-11T03:00:12.209Z,7.40
2018-08-11T03:02:41.269Z,6.40
2018-08-11T03:05:09.994Z,6.47
2018-08-11T03:07:39.198Z,7.10
2018-08-11T03:10:10.862Z,6.10
2018-08-11T03:12:40.563Z,6.43
2018-08-11T03:15:12.732Z,7.03
2018-08-11T03:17:42.344Z,6.87
2018-08-11T03:20:14.892Z,6.73
2018-08-11T03:22:45.398Z,6.53
2018-08-11T03:25:14.330Z,7.40
2018-08-11T03:27:43.413Z,7.00
2018-08-11T03:30:13.098Z,7.87
2018-08-11T03:32:42.126Z,7.57
2018-08-11T03:35:11.266Z,6.17
2018-08-11T03:37:39.985Z,5.90
2018-08-11T03:40:10.436Z,6.97
2018-08-11T03:42:40.191Z,6.63
2018-08-11T03:45:09.714Z,7.30
2018-08-11T03:47:38.464Z,6.87
2018-08-11T03:50:07.788Z,5.90
2018-08-11T03:52:36.870Z,7.07
2018-08-11T03:55:06.400Z,6.03
2018-08-11T03:57:35.808Z,7.07
2018-08-11T04:00:06.235Z,7.43
2018-08-11T04:02:35.069Z,6.93
2018-08-11T04:05:04.009Z,6.50
2018-08-11T04:07:33.392Z,7.20
2018-08-11T04:10:02.412Z,6.60
2018-08-11T04:12:31.594Z,6.77
2018-08-11T04:15:00.437Z,7.80
2018-08-11T04:17:41.971Z,8.03
2018-08-11T04:20:11.932Z,6.47
2018-08-11T04:22:40.950Z,7.30
2018-08-11T04:25:10.327Z,6.70
2018-08-11T04:27:39.395Z,7.50
2018-08-11T04:30:09.760Z,8.53
2018-08-11T04:32:38.627Z,6.73
2018-08-11T04:35:07.490Z,7.27
2018-08-11T04:37:36.559Z,6.90
2018-08-11T04:40:05.997Z,7.23
2018-08-11T04:42:35.308Z,7.27
2018-08-11T04:45:04.623Z,6.80
2018-08-11T04:47:33.630Z,7.40
2018-08-11T04:50:02.896Z,6.60
2018-08-11T04:52:31.794Z,7.03
2018-08-11T04:55:00.736Z,7.07
2018-08-11T04:57:29.653Z,7.17
2018-08-11T04:59:58.426Z,6.73
2018-08-11T05:02:27.858Z,7.30
2018-08-11T05:04:57.282Z,7.30
2018-08-11T05:07:26.125Z,6.90
2018-08-11T05:09:55.315Z,7.53
2018-08-11T05:12:24.049Z,7.03
2018-08-11T05:14:52.998Z,7.77
2018-08-11T05:17:21.945Z,7.23
2018-08-11T05:19:50.923Z,7.00
2018-08-11T05:22:20.060Z,6.93
2018-08-11T05:24:49.005Z,8.60
2018-08-11T05:27:18.122Z,7.10
2018-08-11T05:29:46.993Z,6.40
2018-08-11T05:32:15.861Z,6.47
2018-08-11T05:34:45.077Z,6.57
2018-08-11T05:37:14.690Z,6.47
2018-08-11T05:39:43.458Z,6.80
2018-08-11T05:42:12.257Z,7.20
2018-08-11T05:44:41.140Z,7.30
2018-08-11T05:47:10.070Z,6.83
2018-08-11T05:49:38.882Z,6.70
2018-08-11T05:52:07.733Z,6.30
2018-08-11T05:54:36.917Z,6.20
2018-08-11T05:57:05.764Z,6.93
2018-08-11T05:59:35.022Z,6.70
2018-08-11T06:02:04.383Z,6.30
2018-08-11T06:04:33.258Z,6.27
2018-08-11T06:07:02.280Z,6.33
2018-08-11T06:09:31.241Z,6.77
2018-08-11T06:12:00.709Z,5.57
2018-08-11T06:14:29.664Z,6.40
2018-08-11T06:16:58.974Z,4.63
2018-08-11T06:19:27.874Z,4.60
2018-08-11T06:21:57.076Z,4.40
2018-08-11T06:24:25.910Z,4.30
2018-08-11T06:26:54.900Z,4.70
2018-08-11T06:29:23.785Z,4.33
2018-08-11T06:31:52.713Z,3.83
2018-08-11T06:34:21.342Z,3.93
2018-08-11T06:36:51.183Z,3.67
2018-08-11T06:39:20.053Z,3.90
2018-08-11T06:41:48.866Z,3.60
2018-08-11T06:44:17.655Z,2.97
2018-08-11T06:46:46.677Z,2.77
2018-08-11T06:49:15.822Z,1.97
2018-08-11T06:51:44.589Z,1.63
2018-08-11T06:54:13.414Z,1.60
2018-08-11T06:56:42.370Z,2.10
2018-08-11T06:59:11.141Z,2.23
2018-08-11T07:01:39.925Z,1.80
2018-08-11T07:04:08.641Z,1.93
2018-08-11T07:06:37.422Z,2.70
2018-08-11T07:09:08.961Z,2.20
2018-08-11T07:11:38.014Z,2.27
2018-08-11T07:14:06.852Z,1.97
2018-08-11T07:16:36.181Z,1.57
2018-08-11T07:19:05.083Z,1.00
2018-08-11T07:21:34.178Z,1.47
2018-08-11T07:24:02.968Z,1.20
2018-08-11T07:26:31.715Z,1.33
2018-08-11T07:29:00.613Z,1.33
2018-08-11T07:31:29.434Z,2.00
2018-08-11T07:33:58.533Z,0.90
2018-08-11T07:36:27.338Z,1.27
2018-08-11T07:38:55.981Z,1.63
2018-08-11T07:41:24.987Z,1.30
2018-08-11T07:43:53.637Z,1.50
2018-08-11T07:46:23.389Z,1.10
2018-08-11T07:48:52.277Z,1.20
2018-08-11T07:51:21.094Z,1.10
2018-08-11T07:53:49.858Z,1.10
2018-08-11T07:56:18.628Z,1.10
2018-08-11T07:58:47.770Z,1.40
2018-08-11T08:01:16.566Z,1.47
2018-08-11T08:03:45.321Z,1.40
2018-08-11T08:06:14.069Z,2.00
2018-08-11T08:08:42.901Z,1.30
2018-08-11T08:11:12.116Z,1.00
2018-08-11T08:13:40.921Z,1.23
2018-08-11T08:16:09.589Z,1.33
2018-08-11T08:18:38.274Z,1.30
2018-08-11T08:21:07.213Z,1.00
2018-08-11T08:23:35.909Z,1.07
2018-08-11T08:26:04.630Z,1.53
2018-08-11T08:28:33.533Z,1.17
2018-08-11T08:31:04.670Z,1.30
2018-08-11T08:33:33.526Z,1.10
2018-08-11T08:36:02.633Z,1.23
2018-08-11T08:38:31.478Z,1.20
2018-08-11T08:41:00.240Z,1.07
2018-08-11T08:43:28.901Z,1.13
2018-08-11T08:45:57.619Z,1.40
2018-08-11T08:48:26.363Z,1.10
2018-08-11T08:50:55.508Z,1.20
2018-08-11T08:53:24.278Z,1.40
2018-08-11T08:55:53.095Z,1.10
2018-08-11T08:58:21.855Z,2.03
2018-08-11T09:00:50.712Z,1.73
2018-08-11T09:03:19.454Z,1.50
2018-08-11T09:05:48.419Z,1.10
2018-08-11T09:08:17.503Z,1.00
2018-08-11T09:10:46.413Z,1.20
2018-08-11T09:13:15.209Z,1.00
2018-08-11T09:15:44.147Z,1.20
2018-08-11T09:18:12.852Z,1.20
2018-08-11T09:20:41.661Z,1.03
2018-08-11T09:23:10.349Z,1.10
2018-08-11T09:25:39.317Z,1.03
2018-08-11T09:28:08.029Z,1.10
2018-08-11T09:30:36.845Z,1.00
2018-08-11T09:33:05.836Z,1.10
2018-08-11T09:35:34.669Z,1.20
2018-08-11T09:38:03.503Z,1.43
2018-08-11T09:40:32.426Z,1.40
2018-08-11T09:43:01.154Z,1.27
2018-08-11T09:45:30.058Z,1.20
2018-08-11T09:47:58.867Z,1.30
2018-08-11T09:50:27.577Z,1.00
2018-08-11T09:52:56.229Z,1.30
2018-08-11T09:55:25.339Z,1.00
2018-08-11T09:57:54.224Z,1.10
2018-08-11T10:00:28.297Z,1.00
2018-08-11T10:02:56.934Z,1.53
2018-08-11T10:05:25.689Z,1.07
2018-08-11T10:07:54.393Z,1.10
2018-08-11T10:10:23.047Z,1.10
2018-08-11T10:12:51.879Z,1.33
2018-08-11T10:15:20.574Z,1.57
2018-08-11T10:17:49.329Z,1.13
2018-08-11T10:20:18.058Z,1.40
2018-08-11T10:22:46.892Z,1.20
2018-08-11T10:25:15.781Z,1.23
2018-08-11T10:27:44.736Z,1.10
2018-08-11T10:30:13.406Z,1.20
2018-08-11T10:32:42.070Z,1.40
2018-08-11T10:35:11.093Z,1.00
2018-08-11T10:37:39.860Z,1.63
2018-08-11T10:40:08.768Z,1.20
2018-08-11T10:42:37.543Z,1.30
2018-08-11T10:45:06.274Z,0.90
2018-08-11T10:47:35.001Z,0.90
2018-08-11T10:50:04.014Z,1.10
2018-08-11T10:52:32.757Z,1.00
2018-08-11T10:55:01.464Z,1.17
2018-08-11T10:57:30.169Z,1.00
2018-08-11T10:59:59.065Z,1.37
2018-08-11T11:02:27.842Z,1.60
2018-08-11T11:04:56.714Z,1.70
2018-08-11T11:07:25.517Z,1.70
2018-08-11T11:09:54.648Z,1.03
2018-08-11T11:12:23.448Z,1.80
2018-08-11T11:14:52.078Z,1.90
2018-08-11T11:17:21.351Z,1.80
2018-08-11T11:19:50.176Z,1.40
2018-08-11T11:22:18.871Z,1.23
2018-08-11T11:24:47.825Z,1.07
2018-08-11T11:27:16.486Z,1.30
2018-08-11T11:29:45.344Z,1.43
2018-08-11T11:32:14.258Z,2.13
2018-08-11T11:34:43.340Z,1.20
2018-08-11T11:37:12.144Z,1.10
2018-08-11T11:39:40.955Z,0.90
2018-08-11T11:42:09.605Z,1.50
2018-08-11T11:44:38.321Z,1.20
2018-08-11T11:47:07.206Z,1.20
2018-08-11T11:49:36.058Z,1.03
2018-08-11T11:52:04.762Z,1.30
2018-08-11T11:54:33.785Z,1.00
2018-08-11T11:57:02.957Z,1.27
2018-08-11T11:59:31.823Z,1.23
2018-08-11T12:02:00.899Z,1.20
2018-08-11T12:04:29.850Z,1.23
2018-08-11T12:06:59.600Z,0.90
2018-08-11T12:09:28.458Z,1.40
2018-08-11T12:11:57.350Z,1.37
2018-08-11T12:14:27.060Z,1.30
2018-08-11T12:16:56.438Z,1.30
2018-08-11T12:19:25.209Z,1.30
2018-08-11T12:21:54.006Z,1.20
2018-08-11T12:24:22.937Z,1.00
2018-08-11T12:26:51.709Z,1.00
2018-08-11T12:29:20.510Z,1.63
2018-08-11T12:31:49.214Z,1.23
2018-08-11T12:34:18.136Z,0.93
2018-08-11T12:36:47.082Z,1.50
2018-08-11T12:39:15.830Z,0.80
2018-08-11T12:41:44.549Z,1.10
2018-08-11T12:44:13.388Z,1.37
2018-08-11T12:46:42.119Z,1.17
2018-08-11T12:49:11.249Z,1.47
2018-08-11T12:51:40.153Z,1.20
2018-08-11T12:54:09.094Z,1.00
2018-08-11T12:56:37.907Z,1.10
2018-08-11T12:59:06.670Z,2.10
2018-08-11T13:01:35.604Z,1.00
2018-08-11T13:04:04.348Z,1.47
2018-08-11T13:06:33.126Z,1.80
2018-08-11T13:09:01.864Z,1.93
2018-08-11T13:11:30.610Z,1.20
2018-08-11T13:13:59.376Z,1.10
2018-08-11T13:16:28.138Z,1.40
2018-08-11T13:18:56.819Z,1.60
2018-08-11T13:21:25.709Z,1.17
2018-08-11T13:23:54.397Z,1.20
2018-08-11T13:26:23.220Z,0.90
2018-08-11T13:28:51.989Z,1.30
2018-08-11T13:31:20.704Z,1.30
2018-08-11T13:33:49.376Z,1.10
2018-08-11T13:36:18.110Z,1.50
2018-08-11T13:38:46.863Z,1.03
2018-08-11T13:41:15.617Z,1.10
2018-08-11T13:43:44.378Z,1.07
2018-08-11T13:46:13.458Z,1.30
2018-08-11T13:48:42.361Z,1.07
2018-08-11T13:51:11.299Z,0.90
2018-08-11T13:53:40.121Z,1.00
2018-08-11T13:56:08.934Z,1.23
2018-08-11T13:58:37.758Z,1.00
2018-08-11T14:01:06.783Z,1.67
2018-08-11T14:03:35.601Z,1.63
2018-08-11T14:06:04.484Z,1.00
2018-08-11T14:08:33.459Z,1.07
2018-08-11T14:11:02.394Z,1.27
2018-08-11T14:13:31.308Z,1.37
2018-08-11T14:16:00.062Z,1.20
2018-08-11T14:18:29.017Z,1.07
2018-08-11T14:20:57.742Z,0.80
2018-08-11T14:23:27.063Z,1.33
2018-08-11T14:25:55.805Z,1.50
2018-08-11T14:28:24.574Z,0.90
2018-08-11T14:30:53.525Z,1.40
2018-08-11T14:33:22.170Z,1.23
2018-08-11T14:35:50.973Z,1.40
2018-08-11T14:38:19.790Z,1.30
2018-08-11T14:40:48.643Z,1.27
2018-08-11T14:43:17.719Z,1.53
2018-08-11T14:45:46.361Z,1.87
2018-08-11T14:48:15.346Z,1.50
2018-08-11T14:50:46.102Z,1.20
2018-08-11T14:53:16.603Z,1.23
2018-08-11T14:55:45.454Z,1.43
2018-08-11T14:58:14.132Z,1.07
2018-08-11T15:00:42.861Z,1.40
2018-08-11T15:03:11.777Z,1.43
2018-08-11T15:05:40.648Z,1.20
2018-08-11T15:08:09.765Z,1.20
2018-08-11T15:10:38.493Z,4.13
2018-08-11T15:13:07.224Z,1.20
2018-08-11T15:15:36.037Z,1.60
2018-08-11T15:18:04.842Z,1.50
2018-08-11T15:20:33.658Z,1.50
2018-08-11T15:23:02.517Z,1.30
2018-08-11T15:25:31.513Z,1.33
2018-08-11T15:28:00.387Z,1.30
2018-08-11T15:30:29.271Z,1.47
2018-08-11T15:32:58.385Z,1.30
2018-08-11T15:35:27.196Z,1.30
2018-08-11T15:37:55.834Z,1.33
2018-08-11T15:40:24.632Z,1.70
2018-08-11T15:42:53.297Z,1.10
2018-08-11T15:45:22.745Z,1.10
2018-08-11T15:47:51.653Z,1.17
2018-08-11T15:50:20.312Z,1.50
2018-08-11T15:52:49.081Z,1.20
2018-08-11T15:55:17.857Z,1.63
2018-08-11T15:57:46.785Z,1.30
2018-08-11T16:00:15.647Z,2.07
2018-08-11T16:02:44.336Z,1.30
2018-08-11T16:05:13.391Z,1.97
2018-08-11T16:07:42.045Z,1.17
2018-08-11T16:10:10.837Z,1.53
2018-08-11T16:12:39.687Z,1.40
2018-08-11T16:15:08.391Z,1.50
2018-08-11T16:17:37.306Z,1.47
2018-08-11T16:20:06.269Z,1.10
2018-08-11T16:22:35.134Z,1.50
2018-08-11T16:25:03.853Z,1.20
2018-08-11T16:27:32.634Z,1.40
2018-08-11T16:30:01.347Z,1.00
2018-08-11T16:32:30.018Z,1.50
2018-08-11T16:34:58.913Z,1.40
2018-08-11T16:37:27.675Z,1.37
2018-08-11T16:39:56.346Z,1.80
2018-08-11T16:42:25.061Z,1.63
2018-08-11T16:44:53.748Z,1.37
2018-08-11T16:47:22.775Z,1.47
2018-08-11T16:49:51.514Z,1.60
2018-08-11T16:52:20.208Z,1.60
2018-08-11T16:54:48.887Z,2.20
2018-08-11T16:57:17.606Z,1.10
2018-08-11T16:59:46.552Z,1.10
2018-08-11T17:02:15.381Z,1.60
2018-08-11T17:04:45.538Z,1.27
2018-08-11T17:07:14.455Z,1.57
2018-08-11T17:09:43.204Z,1.60
2018-08-11T17:12:12.098Z,1.57
2018-08-11T17:14:40.853Z,1.17
2018-08-11T17:17:09.984Z,1.53
2018-08-11T17:19:38.665Z,1.50
2018-08-11T17:22:07.361Z,1.60
2018-08-11T17:24:36.234Z,1.40
2018-08-11T17:27:05.254Z,1.50
2018-08-11T17:29:34.194Z,1.20
2018-08-11T17:32:02.837Z,1.30
2018-08-11T17:34:31.561Z,1.23
2018-08-11T17:37:00.677Z,1.40
2018-08-11T17:39:29.537Z,2.03
2018-08-11T17:41:58.723Z,1.10
2018-08-11T17:44:27.625Z,1.83
2018-08-11T17:46:56.274Z,1.57
2018-08-11T17:49:25.149Z,1.20
2018-08-11T17:51:54.008Z,1.60
2018-08-11T17:54:22.937Z,1.30
2018-08-11T17:56:51.722Z,1.43
2018-08-11T17:59:20.596Z,1.40
2018-08-11T18:01:49.358Z,1.60
2018-08-11T18:04:18.111Z,1.93
2018-08-11T18:06:47.407Z,1.50
2018-08-11T18:09:16.349Z,1.40
2018-08-11T18:11:45.222Z,1.50
2018-08-11T18:14:14.191Z,1.50
2018-08-11T18:16:42.950Z,1.60
2018-08-11T18:19:11.773Z,1.40
2018-08-11T18:21:40.579Z,1.97
2018-08-11T18:24:09.316Z,1.30
2018-08-11T18:26:38.159Z,1.33
2018-08-11T18:29:06.869Z,1.30
2018-08-11T18:31:35.577Z,1.67
2018-08-11T18:34:04.390Z,1.50
2018-08-11T18:36:33.095Z,1.60
2018-08-11T18:39:01.966Z,1.77
2018-08-11T18:41:30.796Z,1.40
2018-08-11T18:43:59.473Z,2.00
2018-08-11T18:46:28.273Z,1.90
2018-08-11T18:48:57.149Z,1.40
2018-08-11T18:51:26.174Z,1.63
2018-08-11T18:53:54.950Z,1.50
2018-08-11T18:56:23.723Z,1.57
2018-08-11T18:58:52.569Z,1.70
2018-08-11T19:01:21.526Z,1.60
2018-08-11T19:03:50.474Z,1.77
2018-08-11T19:06:19.289Z,2.13
2018-08-11T19:08:48.313Z,1.63
2018-08-11T19:11:17.294Z,1.87
2018-08-11T19:13:46.232Z,2.27
2018-08-11T19:16:14.990Z,1.27
2018-08-11T19:18:43.786Z,1.50
2018-08-11T19:21:12.457Z,2.00
2018-08-11T19:23:41.525Z,2.10
2018-08-11T19:26:10.289Z,2.20
2018-08-11T19:28:39.022Z,1.63
2018-08-11T19:31:07.718Z,2.17
2018-08-11T19:33:36.637Z,1.10
2018-08-11T19:36:05.474Z,2.80
2018-08-11T19:38:34.146Z,1.77
2018-08-11T19:41:02.862Z,1.43
2018-08-11T19:43:31.506Z,1.80
2018-08-11T19:46:00.231Z,1.87
2018-08-11T19:48:28.961Z,1.37
2018-08-11T19:50:57.983Z,1.47
2018-08-11T19:53:26.738Z,1.33
2018-08-11T19:55:55.723Z,1.37
2018-08-11T19:58:24.373Z,1.90
2018-08-11T20:00:53.335Z,2.90
2018-08-11T20:03:21.996Z,1.80
2018-08-11T20:05:50.794Z,2.13
2018-08-11T20:08:19.484Z,2.40
2018-08-11T20:10:48.502Z,2.40
2018-08-11T20:13:17.361Z,2.20
2018-08-11T20:15:46.094Z,2.10
2018-08-11T20:18:15.018Z,2.23
2018-08-11T20:20:43.730Z,1.97
2018-08-11T20:23:12.655Z,1.83
2018-08-11T20:25:41.938Z,2.47
2018-08-11T20:28:11.158Z,2.60
2018-08-11T20:30:40.046Z,2.80
2018-08-11T20:33:15.408Z,2.40
2018-08-11T20:35:44.142Z,1.63
2018-08-11T20:38:13.276Z,1.93
2018-08-11T20:40:42.134Z,1.70
2018-08-11T20:43:10.818Z,2.33
2018-08-11T20:45:39.937Z,1.80
2018-08-11T20:48:08.881Z,1.60
2018-08-11T20:50:38.418Z,2.57
2018-08-11T20:53:07.203Z,2.50
2018-08-11T20:55:36.014Z,2.57
2018-08-11T20:58:04.863Z,1.90
2018-08-11T21:00:33.693Z,2.53
2018-08-11T21:03:02.453Z,3.10
2018-08-11T21:05:31.171Z,2.30
2018-08-11T21:07:59.879Z,2.63
2018-08-11T21:10:28.770Z,2.60
2018-08-11T21:12:57.554Z,2.40
2018-08-11T21:15:26.250Z,2.10
2018-08-11T21:17:55.032Z,2.00
2018-08-11T21:20:23.870Z,3.10
2018-08-11T21:22:52.806Z,2.60
2018-08-11T21:25:21.553Z,2.23
2018-08-11T21:27:50.253Z,2.30
2018-08-11T21:30:19.167Z,2.80
2018-08-11T21:32:47.950Z,1.93
2018-08-11T21:35:16.746Z,2.30
2018-08-11T21:37:45.499Z,2.27
2018-08-11T21:40:15.324Z,2.50
2018-08-11T21:42:44.759Z,2.73
2018-08-11T21:45:14.359Z,2.73
2018-08-11T21:47:43.525Z,3.13
2018-08-11T21:50:12.200Z,2.47
2018-08-11T21:52:41.127Z,2.90
2018-08-11T21:55:10.333Z,2.90
2018-08-11T21:57:39.601Z,2.53
2018-08-11T22:00:22.461Z,3.00
2018-08-11T22:02:51.654Z,2.67
2018-08-11T22:05:20.462Z,2.73
2018-08-11T22:07:49.183Z,2.77
2018-08-11T22:10:18.005Z,2.80
2018-08-11T22:12:46.860Z,3.00
2018-08-11T22:15:18.151Z,2.90
2018-08-11T22:17:47.612Z,2.90
2018-08-11T22:20:16.445Z,2.80
2018-08-11T22:22:45.707Z,3.23
2018-08-11T22:25:15.057Z,3.50
2018-08-11T22:27:44.833Z,3.40
2018-08-11T22:30:13.953Z,3.10
2018-08-11T22:32:42.932Z,3.23
2018-08-11T22:35:12.963Z,3.00
2018-08-11T22:37:41.647Z,2.80
2018-08-11T22:40:10.554Z,2.87
2018-08-11T22:42:39.947Z,3.10
2018-08-11T22:45:10.538Z,2.70
2018-08-11T22:47:39.913Z,3.93
2018-08-11T22:50:12.161Z,3.33
2018-08-11T22:52:41.257Z,2.93
2018-08-11T22:55:10.444Z,2.90
2018-08-11T22:57:39.504Z,2.53
2018-08-11T23:00:16.065Z,2.33
2018-08-11T23:02:45.195Z,2.87
2018-08-11T23:05:14.338Z,3.23
2018-08-11T23:07:43.612Z,2.67
2018-08-11T23:10:14.002Z,3.13
2018-08-11T23:12:43.750Z,2.87
2018-08-11T23:15:16.887Z,2.30
2018-08-11T23:17:47.168Z,3.10
2018-08-11T23:20:16.611Z,4.37
2018-08-11T23:22:45.539Z,3.10
2018-08-11T23:25:15.166Z,2.60
2018-08-11T23:27:44.363Z,3.40
2018-08-11T23:30:15.614Z,2.73
2018-08-11T23:32:44.591Z,2.57
2018-08-11T23:35:14.333Z,3.30
2018-08-11T23:37:43.607Z,3.30
2018-08-11T23:40:12.692Z,2.70
2018-08-11T23:42:41.495Z,3.03
2018-08-11T23:45:13.793Z,2.50
2018-08-11T23:47:42.997Z,1.70
2018-08-11T23:50:12.773Z,2.40
2018-08-11T23:52:42.596Z,2.53
2018-08-11T23:55:13.084Z,2.70
2018-08-11T23:57:42.055Z,3.63
